sensor_id;sensor_type;location;lat;lon;timestamp;P1;durP1;ratioP1;P2;durP2;ratioP2
75261;SDS011;63859;51.064;4.580;2022-11-15T00:00:25;65.40;;;30.17;;
75261;SDS011;63859;51.064;4.580;2022-11-15T00:02:53;60.53;;;29.57;;
75261;SDS011;63859;51.064;4.580;2022-11-15T00:05:19;64.33;;;30.90;;
75261;SDS011;63859;51.064;4.580;2022-11-15T00:07:45;61.27;;;30.10;;
75261;SDS011;63859;51.064;4.580;2022-11-15T00:10:11;67.00;;;30.37;;
75261;SDS011;63859;51.064;4.580;2022-11-15T00:12:37;59.23;;;30.70;;
75261;SDS011;63859;51.064;4.580;2022-11-15T00:15:03;60.03;;;30.63;;
75261;SDS011;63859;51.064;4.580;2022-11-15T00:17:29;56.27;;;28.20;;
75261;SDS011;63859;51.064;4.580;2022-11-15T00:19:54;63.17;;;30.03;;
75261;SDS011;63859;51.064;4.580;2022-11-15T00:22:20;61.47;;;31.07;;
75261;SDS011;63859;51.064;4.580;2022-11-15T00:24:46;62.30;;;30.97;;
75261;SDS011;63859;51.064;4.580;2022-11-15T00:27:12;58.07;;;29.47;;
75261;SDS011;63859;51.064;4.580;2022-11-15T00:29:37;53.90;;;29.10;;
75261;SDS011;63859;51.064;4.580;2022-11-15T00:32:08;59.00;;;29.17;;
75261;SDS011;63859;51.064;4.580;2022-11-15T00:34:36;63.07;;;30.03;;
75261;SDS011;63859;51.064;4.580;2022-11-15T00:37:02;57.43;;;29.00;;
75261;SDS011;63859;51.064;4.580;2022-11-15T00:39:28;57.50;;;29.57;;
75261;SDS011;63859;51.064;4.580;2022-11-15T00:41:53;59.07;;;29.67;;
75261;SDS011;63859;51.064;4.580;2022-11-15T00:44:19;54.97;;;28.93;;
75261;SDS011;63859;51.064;4.580;2022-11-15T00:46:44;55.47;;;28.77;;
75261;SDS011;63859;51.064;4.580;2022-11-15T00:49:10;59.97;;;29.50;;
75261;SDS011;63859;51.064;4.580;2022-11-15T00:51:35;63.97;;;28.90;;
75261;SDS011;63859;51.064;4.580;2022-11-15T00:54:01;51.57;;;28.57;;
75261;SDS011;63859;51.064;4.580;2022-11-15T00:56:27;49.50;;;28.80;;
75261;SDS011;63859;51.064;4.580;2022-11-15T00:58:53;52.33;;;28.17;;
75261;SDS011;63859;51.064;4.580;2022-11-15T01:01:18;54.00;;;28.37;;
75261;SDS011;63859;51.064;4.580;2022-11-15T01:03:44;53.60;;;28.23;;
75261;SDS011;63859;51.064;4.580;2022-11-15T01:06:10;57.10;;;28.83;;
75261;SDS011;63859;51.064;4.580;2022-11-15T01:08:38;52.73;;;28.73;;
75261;SDS011;63859;51.064;4.580;2022-11-15T01:11:06;57.33;;;29.63;;
75261;SDS011;63859;51.064;4.580;2022-11-15T01:13:34;56.47;;;29.20;;
75261;SDS011;63859;51.064;4.580;2022-11-15T01:16:08;49.43;;;29.20;;
75261;SDS011;63859;51.064;4.580;2022-11-15T01:18:36;57.83;;;29.63;;
75261;SDS011;63859;51.064;4.580;2022-11-15T01:21:07;57.20;;;28.20;;
75261;SDS011;63859;51.064;4.580;2022-11-15T01:23:34;56.37;;;29.17;;
75261;SDS011;63859;51.064;4.580;2022-11-15T01:26:00;51.10;;;28.03;;
75261;SDS011;63859;51.064;4.580;2022-11-15T01:28:31;56.77;;;29.10;;
75261;SDS011;63859;51.064;4.580;2022-11-15T01:30:58;51.10;;;27.47;;
75261;SDS011;63859;51.064;4.580;2022-11-15T01:33:25;54.50;;;28.60;;
75261;SDS011;63859;51.064;4.580;2022-11-15T01:35:50;49.77;;;27.50;;
75261;SDS011;63859;51.064;4.580;2022-11-15T01:38:16;47.80;;;26.03;;
75261;SDS011;63859;51.064;4.580;2022-11-15T01:40:41;47.97;;;25.47;;
75261;SDS011;63859;51.064;4.580;2022-11-15T01:43:20;52.47;;;26.97;;
75261;SDS011;63859;51.064;4.580;2022-11-15T01:45:49;50.30;;;26.13;;
75261;SDS011;63859;51.064;4.580;2022-11-15T01:48:39;50.17;;;25.73;;
75261;SDS011;63859;51.064;4.580;2022-11-15T01:51:06;48.70;;;26.77;;
75261;SDS011;63859;51.064;4.580;2022-11-15T01:53:34;49.00;;;25.80;;
75261;SDS011;63859;51.064;4.580;2022-11-15T01:56:04;45.33;;;24.77;;
75261;SDS011;63859;51.064;4.580;2022-11-15T01:58:31;42.23;;;25.13;;
75261;SDS011;63859;51.064;4.580;2022-11-15T02:00:58;45.07;;;24.97;;
75261;SDS011;63859;51.064;4.580;2022-11-15T02:03:25;39.83;;;23.80;;
75261;SDS011;63859;51.064;4.580;2022-11-15T02:05:57;42.10;;;24.73;;
75261;SDS011;63859;51.064;4.580;2022-11-15T02:08:23;41.43;;;23.77;;
75261;SDS011;63859;51.064;4.580;2022-11-15T02:10:48;43.10;;;24.53;;
75261;SDS011;63859;51.064;4.580;2022-11-15T02:13:14;41.97;;;23.67;;
75261;SDS011;63859;51.064;4.580;2022-11-15T02:18:34;40.27;;;23.00;;
75261;SDS011;63859;51.064;4.580;2022-11-15T02:29:10;39.73;;;21.33;;
75261;SDS011;63859;51.064;4.580;2022-11-15T02:34:42;38.43;;;20.73;;
75261;SDS011;63859;51.064;4.580;2022-11-15T02:37:15;37.40;;;21.17;;
75261;SDS011;63859;51.064;4.580;2022-11-15T02:42:18;38.47;;;20.37;;
75261;SDS011;63859;51.064;4.580;2022-11-15T02:45:07;38.63;;;20.10;;
75261;SDS011;63859;51.064;4.580;2022-11-15T02:47:39;34.10;;;19.50;;
75261;SDS011;63859;51.064;4.580;2022-11-15T02:50:10;38.70;;;20.27;;
75261;SDS011;63859;51.064;4.580;2022-11-15T02:52:37;31.87;;;19.90;;
75261;SDS011;63859;51.064;4.580;2022-11-15T02:55:03;30.33;;;18.90;;
75261;SDS011;63859;51.064;4.580;2022-11-15T02:57:38;34.00;;;18.30;;
75261;SDS011;63859;51.064;4.580;2022-11-15T03:00:17;32.03;;;18.23;;
75261;SDS011;63859;51.064;4.580;2022-11-15T03:05:50;31.80;;;17.87;;
75261;SDS011;63859;51.064;4.580;2022-11-15T03:08:51;30.23;;;17.63;;
75261;SDS011;63859;51.064;4.580;2022-11-15T03:11:29;32.60;;;17.13;;
75261;SDS011;63859;51.064;4.580;2022-11-15T03:14:07;30.60;;;17.27;;
75261;SDS011;63859;51.064;4.580;2022-11-15T03:22:06;30.43;;;17.10;;
75261;SDS011;63859;51.064;4.580;2022-11-15T03:24:36;34.70;;;17.60;;
75261;SDS011;63859;51.064;4.580;2022-11-15T03:27:04;35.27;;;17.57;;
75261;SDS011;63859;51.064;4.580;2022-11-15T03:29:33;29.53;;;17.90;;
75261;SDS011;63859;51.064;4.580;2022-11-15T03:32:05;34.10;;;18.23;;
75261;SDS011;63859;51.064;4.580;2022-11-15T03:35:18;33.20;;;18.27;;
75261;SDS011;63859;51.064;4.580;2022-11-15T03:40:14;30.30;;;17.77;;
75261;SDS011;63859;51.064;4.580;2022-11-15T03:42:43;29.63;;;16.43;;
75261;SDS011;63859;51.064;4.580;2022-11-15T03:45:22;31.97;;;17.43;;
75261;SDS011;63859;51.064;4.580;2022-11-15T03:50:41;33.33;;;17.03;;
75261;SDS011;63859;51.064;4.580;2022-11-15T03:53:08;31.23;;;17.10;;
75261;SDS011;63859;51.064;4.580;2022-11-15T03:55:35;30.73;;;16.23;;
75261;SDS011;63859;51.064;4.580;2022-11-15T03:58:00;30.63;;;15.13;;
75261;SDS011;63859;51.064;4.580;2022-11-15T04:00:26;26.57;;;15.00;;
75261;SDS011;63859;51.064;4.580;2022-11-15T04:02:53;28.33;;;15.00;;
75261;SDS011;63859;51.064;4.580;2022-11-15T04:05:18;24.80;;;14.93;;
75261;SDS011;63859;51.064;4.580;2022-11-15T04:07:44;29.70;;;15.03;;
75261;SDS011;63859;51.064;4.580;2022-11-15T04:10:10;29.00;;;13.37;;
75261;SDS011;63859;51.064;4.580;2022-11-15T04:12:38;23.63;;;13.77;;
75261;SDS011;63859;51.064;4.580;2022-11-15T04:15:08;24.50;;;12.83;;
75261;SDS011;63859;51.064;4.580;2022-11-15T04:22:53;21.17;;;11.63;;
75261;SDS011;63859;51.064;4.580;2022-11-15T04:25:42;20.37;;;11.13;;
75261;SDS011;63859;51.064;4.580;2022-11-15T04:28:08;20.17;;;10.83;;
75261;SDS011;63859;51.064;4.580;2022-11-15T04:30:35;18.43;;;9.77;;
75261;SDS011;63859;51.064;4.580;2022-11-15T04:33:00;19.20;;;10.37;;
75261;SDS011;63859;51.064;4.580;2022-11-15T04:35:26;15.40;;;8.63;;
75261;SDS011;63859;51.064;4.580;2022-11-15T04:37:52;23.70;;;9.40;;
75261;SDS011;63859;51.064;4.580;2022-11-15T04:40:19;19.53;;;9.33;;
75261;SDS011;63859;51.064;4.580;2022-11-15T04:42:44;17.93;;;8.87;;
75261;SDS011;63859;51.064;4.580;2022-11-15T04:45:10;21.13;;;9.20;;
75261;SDS011;63859;51.064;4.580;2022-11-15T04:47:36;20.83;;;9.43;;
75261;SDS011;63859;51.064;4.580;2022-11-15T04:50:02;16.23;;;8.77;;
75261;SDS011;63859;51.064;4.580;2022-11-15T04:52:28;18.53;;;8.77;;
75261;SDS011;63859;51.064;4.580;2022-11-15T04:54:53;18.03;;;9.00;;
75261;SDS011;63859;51.064;4.580;2022-11-15T04:57:19;15.07;;;8.90;;
75261;SDS011;63859;51.064;4.580;2022-11-15T04:59:45;15.53;;;8.97;;
75261;SDS011;63859;51.064;4.580;2022-11-15T05:02:11;18.20;;;8.50;;
75261;SDS011;63859;51.064;4.580;2022-11-15T05:04:37;20.07;;;9.70;;
75261;SDS011;63859;51.064;4.580;2022-11-15T05:07:02;22.50;;;9.27;;
75261;SDS011;63859;51.064;4.580;2022-11-15T05:09:31;17.23;;;9.30;;
75261;SDS011;63859;51.064;4.580;2022-11-15T05:11:57;17.47;;;8.97;;
75261;SDS011;63859;51.064;4.580;2022-11-15T05:14:22;15.33;;;8.90;;
75261;SDS011;63859;51.064;4.580;2022-11-15T05:16:48;22.77;;;9.77;;
75261;SDS011;63859;51.064;4.580;2022-11-15T05:19:13;17.27;;;8.27;;
75261;SDS011;63859;51.064;4.580;2022-11-15T05:21:39;18.73;;;8.80;;
75261;SDS011;63859;51.064;4.580;2022-11-15T05:24:05;13.47;;;7.70;;
75261;SDS011;63859;51.064;4.580;2022-11-15T05:26:30;14.13;;;8.37;;
75261;SDS011;63859;51.064;4.580;2022-11-15T05:28:57;16.40;;;7.10;;
75261;SDS011;63859;51.064;4.580;2022-11-15T05:31:24;13.33;;;7.77;;
75261;SDS011;63859;51.064;4.580;2022-11-15T05:33:50;12.73;;;7.80;;
75261;SDS011;63859;51.064;4.580;2022-11-15T05:39:07;15.53;;;6.80;;
75261;SDS011;63859;51.064;4.580;2022-11-15T05:41:35;13.43;;;7.20;;
75261;SDS011;63859;51.064;4.580;2022-11-15T05:44:05;12.37;;;6.33;;
75261;SDS011;63859;51.064;4.580;2022-11-15T05:46:34;12.47;;;6.87;;
75261;SDS011;63859;51.064;4.580;2022-11-15T05:49:01;10.50;;;6.13;;
75261;SDS011;63859;51.064;4.580;2022-11-15T05:51:29;11.93;;;6.03;;
75261;SDS011;63859;51.064;4.580;2022-11-15T05:53:55;12.93;;;6.13;;
75261;SDS011;63859;51.064;4.580;2022-11-15T05:56:23;14.30;;;7.70;;
75261;SDS011;63859;51.064;4.580;2022-11-15T05:58:51;16.77;;;6.27;;
75261;SDS011;63859;51.064;4.580;2022-11-15T06:01:21;11.40;;;5.80;;
75261;SDS011;63859;51.064;4.580;2022-11-15T06:03:48;15.23;;;6.17;;
75261;SDS011;63859;51.064;4.580;2022-11-15T06:06:13;15.10;;;5.67;;
75261;SDS011;63859;51.064;4.580;2022-11-15T06:08:39;17.07;;;6.20;;
75261;SDS011;63859;51.064;4.580;2022-11-15T06:11:05;11.80;;;6.37;;
75261;SDS011;63859;51.064;4.580;2022-11-15T06:13:31;11.87;;;7.20;;
75261;SDS011;63859;51.064;4.580;2022-11-15T06:15:57;15.43;;;5.93;;
75261;SDS011;63859;51.064;4.580;2022-11-15T06:18:23;14.43;;;6.70;;
75261;SDS011;63859;51.064;4.580;2022-11-15T06:20:49;24.03;;;7.40;;
75261;SDS011;63859;51.064;4.580;2022-11-15T06:23:14;18.10;;;7.30;;
75261;SDS011;63859;51.064;4.580;2022-11-15T06:25:40;12.47;;;6.50;;
75261;SDS011;63859;51.064;4.580;2022-11-15T06:28:06;15.57;;;6.83;;
75261;SDS011;63859;51.064;4.580;2022-11-15T06:30:31;14.50;;;6.23;;
75261;SDS011;63859;51.064;4.580;2022-11-15T06:33:01;13.40;;;6.40;;
75261;SDS011;63859;51.064;4.580;2022-11-15T06:35:28;13.27;;;6.00;;
75261;SDS011;63859;51.064;4.580;2022-11-15T06:37:54;10.80;;;6.10;;
75261;SDS011;63859;51.064;4.580;2022-11-15T06:40:19;15.10;;;5.57;;
75261;SDS011;63859;51.064;4.580;2022-11-15T06:42:45;18.60;;;5.83;;
75261;SDS011;63859;51.064;4.580;2022-11-15T06:45:11;12.27;;;5.67;;
75261;SDS011;63859;51.064;4.580;2022-11-15T06:47:43;6.57;;;4.97;;
75261;SDS011;63859;51.064;4.580;2022-11-15T06:50:12;16.07;;;5.60;;
75261;SDS011;63859;51.064;4.580;2022-11-15T06:52:38;13.57;;;5.53;;
75261;SDS011;63859;51.064;4.580;2022-11-15T06:55:03;9.27;;;5.37;;
75261;SDS011;63859;51.064;4.580;2022-11-15T06:57:29;14.67;;;5.97;;
75261;SDS011;63859;51.064;4.580;2022-11-15T06:59:55;14.97;;;5.23;;
75261;SDS011;63859;51.064;4.580;2022-11-15T07:02:21;15.90;;;5.50;;
75261;SDS011;63859;51.064;4.580;2022-11-15T07:04:46;12.20;;;5.63;;
75261;SDS011;63859;51.064;4.580;2022-11-15T07:07:12;12.00;;;5.63;;
75261;SDS011;63859;51.064;4.580;2022-11-15T07:09:37;17.60;;;5.70;;
75261;SDS011;63859;51.064;4.580;2022-11-15T07:12:03;14.20;;;6.13;;
75261;SDS011;63859;51.064;4.580;2022-11-15T07:14:29;16.43;;;7.00;;
75261;SDS011;63859;51.064;4.580;2022-11-15T07:16:54;14.73;;;6.23;;
75261;SDS011;63859;51.064;4.580;2022-11-15T07:19:20;11.50;;;6.30;;
75261;SDS011;63859;51.064;4.580;2022-11-15T07:21:45;21.57;;;7.53;;
75261;SDS011;63859;51.064;4.580;2022-11-15T07:24:11;10.80;;;6.63;;
75261;SDS011;63859;51.064;4.580;2022-11-15T07:26:37;16.43;;;7.10;;
75261;SDS011;63859;51.064;4.580;2022-11-15T07:29:02;14.63;;;7.10;;
75261;SDS011;63859;51.064;4.580;2022-11-15T07:31:28;15.87;;;7.13;;
75261;SDS011;63859;51.064;4.580;2022-11-15T07:33:53;17.90;;;6.50;;
75261;SDS011;63859;51.064;4.580;2022-11-15T07:36:19;13.73;;;7.00;;
75261;SDS011;63859;51.064;4.580;2022-11-15T07:38:45;13.00;;;6.00;;
75261;SDS011;63859;51.064;4.580;2022-11-15T07:41:10;11.17;;;6.00;;
75261;SDS011;63859;51.064;4.580;2022-11-15T07:43:36;11.70;;;5.93;;
75261;SDS011;63859;51.064;4.580;2022-11-15T07:46:05;16.07;;;6.70;;
75261;SDS011;63859;51.064;4.580;2022-11-15T07:48:34;10.83;;;6.30;;
75261;SDS011;63859;51.064;4.580;2022-11-15T07:51:00;13.60;;;6.80;;
75261;SDS011;63859;51.064;4.580;2022-11-15T07:53:26;15.27;;;7.97;;
75261;SDS011;63859;51.064;4.580;2022-11-15T07:55:51;14.60;;;6.27;;
75261;SDS011;63859;51.064;4.580;2022-11-15T07:58:18;11.67;;;7.20;;
75261;SDS011;63859;51.064;4.580;2022-11-15T08:00:44;20.53;;;7.00;;
75261;SDS011;63859;51.064;4.580;2022-11-15T08:03:13;11.13;;;6.40;;
75261;SDS011;63859;51.064;4.580;2022-11-15T08:05:40;14.80;;;6.60;;
75261;SDS011;63859;51.064;4.580;2022-11-15T08:08:08;14.27;;;7.03;;
75261;SDS011;63859;51.064;4.580;2022-11-15T08:11:06;15.43;;;6.93;;
75261;SDS011;63859;51.064;4.580;2022-11-15T08:13:32;15.07;;;6.27;;
75261;SDS011;63859;51.064;4.580;2022-11-15T08:15:58;12.90;;;6.97;;
75261;SDS011;63859;51.064;4.580;2022-11-15T08:18:25;15.17;;;7.00;;
75261;SDS011;63859;51.064;4.580;2022-11-15T08:20:51;14.20;;;6.83;;
75261;SDS011;63859;51.064;4.580;2022-11-15T08:23:16;13.50;;;6.63;;
75261;SDS011;63859;51.064;4.580;2022-11-15T08:25:42;11.37;;;5.80;;
75261;SDS011;63859;51.064;4.580;2022-11-15T08:28:08;16.50;;;6.40;;
75261;SDS011;63859;51.064;4.580;2022-11-15T08:30:36;17.63;;;6.17;;
75261;SDS011;63859;51.064;4.580;2022-11-15T08:33:03;11.90;;;4.87;;
75261;SDS011;63859;51.064;4.580;2022-11-15T08:35:29;12.77;;;5.43;;
75261;SDS011;63859;51.064;4.580;2022-11-15T08:37:55;12.07;;;4.80;;
75261;SDS011;63859;51.064;4.580;2022-11-15T08:40:21;7.67;;;4.67;;
75261;SDS011;63859;51.064;4.580;2022-11-15T08:42:47;10.73;;;4.53;;
75261;SDS011;63859;51.064;4.580;2022-11-15T08:45:13;6.30;;;3.97;;
75261;SDS011;63859;51.064;4.580;2022-11-15T08:47:39;12.67;;;4.10;;
75261;SDS011;63859;51.064;4.580;2022-11-15T08:50:05;15.83;;;3.57;;
75261;SDS011;63859;51.064;4.580;2022-11-15T08:52:31;10.63;;;3.53;;
75261;SDS011;63859;51.064;4.580;2022-11-15T08:54:57;9.27;;;2.80;;
75261;SDS011;63859;51.064;4.580;2022-11-15T08:57:23;8.00;;;2.87;;
75261;SDS011;63859;51.064;4.580;2022-11-15T08:59:49;11.23;;;3.00;;
75261;SDS011;63859;51.064;4.580;2022-11-15T09:02:15;5.53;;;2.50;;
75261;SDS011;63859;51.064;4.580;2022-11-15T09:04:41;8.10;;;3.17;;
75261;SDS011;63859;51.064;4.580;2022-11-15T09:07:08;8.00;;;2.30;;
75261;SDS011;63859;51.064;4.580;2022-11-15T09:09:35;6.90;;;2.63;;
75261;SDS011;63859;51.064;4.580;2022-11-15T09:12:01;12.43;;;2.40;;
75261;SDS011;63859;51.064;4.580;2022-11-15T09:14:27;9.00;;;3.00;;
75261;SDS011;63859;51.064;4.580;2022-11-15T09:16:53;12.97;;;2.73;;
75261;SDS011;63859;51.064;4.580;2022-11-15T09:19:19;10.67;;;2.40;;
75261;SDS011;63859;51.064;4.580;2022-11-15T09:21:44;4.50;;;2.30;;
75261;SDS011;63859;51.064;4.580;2022-11-15T09:24:10;14.53;;;2.60;;
75261;SDS011;63859;51.064;4.580;2022-11-15T09:26:36;6.37;;;2.23;;
75261;SDS011;63859;51.064;4.580;2022-11-15T09:29:02;7.23;;;2.60;;
75261;SDS011;63859;51.064;4.580;2022-11-15T09:31:28;4.40;;;2.10;;
75261;SDS011;63859;51.064;4.580;2022-11-15T09:33:54;23.60;;;3.50;;
75261;SDS011;63859;51.064;4.580;2022-11-15T09:36:20;8.20;;;2.30;;
75261;SDS011;63859;51.064;4.580;2022-11-15T09:38:46;5.97;;;2.40;;
75261;SDS011;63859;51.064;4.580;2022-11-15T09:49:17;14.37;;;3.13;;
75261;SDS011;63859;51.064;4.580;2022-11-15T09:51:44;17.00;;;3.93;;
75261;SDS011;63859;51.064;4.580;2022-11-15T09:54:19;6.80;;;1.90;;
75261;SDS011;63859;51.064;4.580;2022-11-15T09:56:51;44.40;;;5.70;;
75261;SDS011;63859;51.064;4.580;2022-11-15T09:59:30;13.20;;;3.07;;
75261;SDS011;63859;51.064;4.580;2022-11-15T10:02:23;9.03;;;2.30;;
75261;SDS011;63859;51.064;4.580;2022-11-15T10:05:07;7.37;;;2.00;;
75261;SDS011;63859;51.064;4.580;2022-11-15T10:07:48;6.53;;;2.00;;
75261;SDS011;63859;51.064;4.580;2022-11-15T10:12:59;8.40;;;1.90;;
75261;SDS011;63859;51.064;4.580;2022-11-15T10:15:25;22.13;;;3.47;;
75261;SDS011;63859;51.064;4.580;2022-11-15T10:20:51;25.47;;;2.77;;
75261;SDS011;63859;51.064;4.580;2022-11-15T10:23:39;23.50;;;3.08;;
75261;SDS011;63859;51.064;4.580;2022-11-15T10:26:07;19.20;;;2.37;;
75261;SDS011;63859;51.064;4.580;2022-11-15T10:28:38;23.50;;;2.90;;
75261;SDS011;63859;51.064;4.580;2022-11-15T10:31:10;4.37;;;1.70;;
75261;SDS011;63859;51.064;4.580;2022-11-15T10:33:50;10.93;;;1.97;;
75261;SDS011;63859;51.064;4.580;2022-11-15T10:36:22;9.03;;;1.70;;
75261;SDS011;63859;51.064;4.580;2022-11-15T10:38:52;11.00;;;2.13;;
75261;SDS011;63859;51.064;4.580;2022-11-15T10:46:36;11.27;;;1.60;;
75261;SDS011;63859;51.064;4.580;2022-11-15T10:51:54;7.67;;;1.73;;
75261;SDS011;63859;51.064;4.580;2022-11-15T10:54:40;36.50;;;3.90;;
75261;SDS011;63859;51.064;4.580;2022-11-15T10:57:17;8.30;;;1.87;;
75261;SDS011;63859;51.064;4.580;2022-11-15T10:59:46;5.10;;;1.70;;
75261;SDS011;63859;51.064;4.580;2022-11-15T11:07:58;8.47;;;1.90;;
75261;SDS011;63859;51.064;4.580;2022-11-15T11:10:30;17.03;;;3.33;;
75261;SDS011;63859;51.064;4.580;2022-11-15T11:13:07;6.90;;;1.80;;
75261;SDS011;63859;51.064;4.580;2022-11-15T11:15:38;5.40;;;1.63;;
75261;SDS011;63859;51.064;4.580;2022-11-15T11:18:12;13.70;;;2.20;;
75261;SDS011;63859;51.064;4.580;2022-11-15T11:20:51;8.10;;;1.80;;
75261;SDS011;63859;51.064;4.580;2022-11-15T11:28:53;7.35;;;1.70;;
75261;SDS011;63859;51.064;4.580;2022-11-15T11:42:35;8.27;;;1.73;;
75261;SDS011;63859;51.064;4.580;2022-11-15T11:47:55;6.50;;;1.97;;
75261;SDS011;63859;51.064;4.580;2022-11-15T11:50:29;17.08;;;3.00;;
75261;SDS011;63859;51.064;4.580;2022-11-15T11:53:01;14.75;;;2.20;;
75261;SDS011;63859;51.064;4.580;2022-11-15T12:00:51;13.77;;;2.20;;
75261;SDS011;63859;51.064;4.580;2022-11-15T12:06:21;13.27;;;2.03;;
75261;SDS011;63859;51.064;4.580;2022-11-15T12:11:30;10.02;;;1.80;;
75261;SDS011;63859;51.064;4.580;2022-11-15T12:14:11;8.60;;;1.60;;
75261;SDS011;63859;51.064;4.580;2022-11-15T12:16:46;12.82;;;2.60;;
75261;SDS011;63859;51.064;4.580;2022-11-15T12:19:11;8.60;;;1.70;;
75261;SDS011;63859;51.064;4.580;2022-11-15T12:21:44;7.33;;;2.00;;
75261;SDS011;63859;51.064;4.580;2022-11-15T12:24:48;13.97;;;1.80;;
75261;SDS011;63859;51.064;4.580;2022-11-15T12:29:46;5.82;;;1.50;;
75261;SDS011;63859;51.064;4.580;2022-11-15T12:34:54;12.53;;;2.00;;
75261;SDS011;63859;51.064;4.580;2022-11-15T12:37:46;11.43;;;2.20;;
75261;SDS011;63859;51.064;4.580;2022-11-15T12:40:22;31.95;;;3.45;;
75261;SDS011;63859;51.064;4.580;2022-11-15T12:43:33;5.80;;;1.60;;
75261;SDS011;63859;51.064;4.580;2022-11-15T12:45:44;7.53;;;1.73;;
75261;SDS011;63859;51.064;4.580;2022-11-15T12:59:38;4.90;;;1.90;;
75261;SDS011;63859;51.064;4.580;2022-11-15T13:06:55;16.57;;;3.33;;
75261;SDS011;63859;51.064;4.580;2022-11-15T13:17:26;10.80;;;2.22;;
75261;SDS011;63859;51.064;4.580;2022-11-15T13:22:24;8.55;;;1.88;;
75261;SDS011;63859;51.064;4.580;2022-11-15T13:25:16;4.88;;;1.80;;
75261;SDS011;63859;51.064;4.580;2022-11-15T13:28:11;34.03;;;6.45;;
75261;SDS011;63859;51.064;4.580;2022-11-15T13:33:22;3.80;;;1.70;;
75261;SDS011;63859;51.064;4.580;2022-11-15T13:36:00;4.13;;;1.88;;
75261;SDS011;63859;51.064;4.580;2022-11-15T13:38:31;5.55;;;1.58;;
75261;SDS011;63859;51.064;4.580;2022-11-15T13:40:59;4.78;;;1.70;;
75261;SDS011;63859;51.064;4.580;2022-11-15T13:43:38;3.50;;;1.50;;
75261;SDS011;63859;51.064;4.580;2022-11-15T13:48:36;37.47;;;4.40;;
75261;SDS011;63859;51.064;4.580;2022-11-15T13:51:03;8.63;;;2.00;;
75261;SDS011;63859;51.064;4.580;2022-11-15T13:53:32;3.13;;;1.25;;
75261;SDS011;63859;51.064;4.580;2022-11-15T13:56:00;2.97;;;1.65;;
75261;SDS011;63859;51.064;4.580;2022-11-15T13:58:28;4.10;;;1.35;;
75261;SDS011;63859;51.064;4.580;2022-11-15T14:01:01;5.35;;;1.70;;
75261;SDS011;63859;51.064;4.580;2022-11-15T14:03:32;4.70;;;1.30;;
75261;SDS011;63859;51.064;4.580;2022-11-15T14:06:07;4.95;;;1.80;;
75261;SDS011;63859;51.064;4.580;2022-11-15T14:08:41;4.53;;;1.30;;
75261;SDS011;63859;51.064;4.580;2022-11-15T14:11:22;5.13;;;1.67;;
75261;SDS011;63859;51.064;4.580;2022-11-15T14:16:36;3.60;;;1.67;;
75261;SDS011;63859;51.064;4.580;2022-11-15T14:19:06;5.65;;;1.80;;
75261;SDS011;63859;51.064;4.580;2022-11-15T14:24:38;13.45;;;2.40;;
75261;SDS011;63859;51.064;4.580;2022-11-15T14:29:47;8.27;;;1.60;;
75261;SDS011;63859;51.064;4.580;2022-11-15T14:32:24;6.77;;;1.83;;
75261;SDS011;63859;51.064;4.580;2022-11-15T14:34:55;9.97;;;2.07;;
75261;SDS011;63859;51.064;4.580;2022-11-15T14:37:27;5.78;;;2.65;;
75261;SDS011;63859;51.064;4.580;2022-11-15T14:39:58;6.07;;;2.33;;
75261;SDS011;63859;51.064;4.580;2022-11-15T14:42:23;7.97;;;2.28;;
75261;SDS011;63859;51.064;4.580;2022-11-15T14:44:50;7.05;;;2.05;;
75261;SDS011;63859;51.064;4.580;2022-11-15T14:47:16;4.05;;;2.33;;
75261;SDS011;63859;51.064;4.580;2022-11-15T14:49:42;6.03;;;2.03;;
75261;SDS011;63859;51.064;4.580;2022-11-15T14:52:42;7.23;;;1.83;;
75261;SDS011;63859;51.064;4.580;2022-11-15T14:55:02;5.90;;;1.90;;
75261;SDS011;63859;51.064;4.580;2022-11-15T14:57:29;4.25;;;1.70;;
75261;SDS011;63859;51.064;4.580;2022-11-15T14:59:55;6.38;;;2.10;;
75261;SDS011;63859;51.064;4.580;2022-11-15T15:02:25;5.28;;;2.08;;
75261;SDS011;63859;51.064;4.580;2022-11-15T15:04:52;3.00;;;1.98;;
75261;SDS011;63859;51.064;4.580;2022-11-15T15:07:18;5.70;;;2.10;;
75261;SDS011;63859;51.064;4.580;2022-11-15T15:09:44;3.97;;;2.00;;
75261;SDS011;63859;51.064;4.580;2022-11-15T15:12:20;3.45;;;2.17;;
75261;SDS011;63859;51.064;4.580;2022-11-15T15:14:48;6.28;;;2.10;;
75261;SDS011;63859;51.064;4.580;2022-11-15T15:17:15;5.17;;;3.17;;
75261;SDS011;63859;51.064;4.580;2022-11-15T15:19:41;4.78;;;2.50;;
75261;SDS011;63859;51.064;4.580;2022-11-15T15:22:17;4.55;;;2.03;;
75261;SDS011;63859;51.064;4.580;2022-11-15T15:24:46;8.17;;;2.80;;
75261;SDS011;63859;51.064;4.580;2022-11-15T15:27:12;3.13;;;1.90;;
75261;SDS011;63859;51.064;4.580;2022-11-15T15:29:39;3.83;;;2.90;;
75261;SDS011;63859;51.064;4.580;2022-11-15T15:32:05;5.17;;;2.40;;
75261;SDS011;63859;51.064;4.580;2022-11-15T15:34:31;8.23;;;2.50;;
75261;SDS011;63859;51.064;4.580;2022-11-15T15:37:07;4.97;;;2.17;;
75261;SDS011;63859;51.064;4.580;2022-11-15T15:39:33;4.07;;;2.30;;
75261;SDS011;63859;51.064;4.580;2022-11-15T15:41:58;5.45;;;2.17;;
75261;SDS011;63859;51.064;4.580;2022-11-15T15:44:24;5.85;;;2.08;;
75261;SDS011;63859;51.064;4.580;2022-11-15T15:46:49;4.85;;;2.03;;
75261;SDS011;63859;51.064;4.580;2022-11-15T15:49:15;3.33;;;2.40;;
75261;SDS011;63859;51.064;4.580;2022-11-15T15:51:40;5.73;;;2.20;;
75261;SDS011;63859;51.064;4.580;2022-11-15T15:54:06;7.60;;;2.30;;
75261;SDS011;63859;51.064;4.580;2022-11-15T15:56:32;5.05;;;2.20;;
75261;SDS011;63859;51.064;4.580;2022-11-15T15:58:57;6.97;;;2.60;;
75261;SDS011;63859;51.064;4.580;2022-11-15T16:01:23;9.87;;;3.17;;
75261;SDS011;63859;51.064;4.580;2022-11-15T16:03:49;6.13;;;2.93;;
75261;SDS011;63859;51.064;4.580;2022-11-15T16:06:33;6.63;;;2.40;;
75261;SDS011;63859;51.064;4.580;2022-11-15T16:09:02;4.17;;;2.80;;
75261;SDS011;63859;51.064;4.580;2022-11-15T16:11:28;6.87;;;2.77;;
75261;SDS011;63859;51.064;4.580;2022-11-15T16:13:54;4.83;;;2.60;;
75261;SDS011;63859;51.064;4.580;2022-11-15T16:16:19;6.00;;;3.00;;
75261;SDS011;63859;51.064;4.580;2022-11-15T16:18:46;5.77;;;3.10;;
75261;SDS011;63859;51.064;4.580;2022-11-15T16:21:12;6.23;;;2.70;;
75261;SDS011;63859;51.064;4.580;2022-11-15T16:23:38;4.70;;;2.97;;
75261;SDS011;63859;51.064;4.580;2022-11-15T16:26:09;3.30;;;2.90;;
75261;SDS011;63859;51.064;4.580;2022-11-15T16:28:44;4.83;;;2.87;;
75261;SDS011;63859;51.064;4.580;2022-11-15T16:31:10;6.15;;;3.00;;
75261;SDS011;63859;51.064;4.580;2022-11-15T16:33:37;7.07;;;2.90;;
75261;SDS011;63859;51.064;4.580;2022-11-15T16:36:04;7.07;;;2.77;;
75261;SDS011;63859;51.064;4.580;2022-11-15T16:38:37;7.27;;;3.13;;
75261;SDS011;63859;51.064;4.580;2022-11-15T16:41:04;7.67;;;3.27;;
75261;SDS011;63859;51.064;4.580;2022-11-15T16:43:29;5.07;;;2.77;;
75261;SDS011;63859;51.064;4.580;2022-11-15T16:45:55;5.63;;;3.63;;
75261;SDS011;63859;51.064;4.580;2022-11-15T16:48:24;5.73;;;3.27;;
75261;SDS011;63859;51.064;4.580;2022-11-15T16:50:55;4.77;;;3.10;;
75261;SDS011;63859;51.064;4.580;2022-11-15T16:53:25;5.00;;;3.60;;
75261;SDS011;63859;51.064;4.580;2022-11-15T16:55:51;6.93;;;3.20;;
75261;SDS011;63859;51.064;4.580;2022-11-15T16:58:18;4.43;;;2.80;;
75261;SDS011;63859;51.064;4.580;2022-11-15T17:00:44;7.27;;;3.70;;
75261;SDS011;63859;51.064;4.580;2022-11-15T17:03:14;5.40;;;3.80;;
75261;SDS011;63859;51.064;4.580;2022-11-15T17:05:39;4.63;;;3.33;;
75261;SDS011;63859;51.064;4.580;2022-11-15T17:08:05;6.03;;;3.90;;